Time;durP1;ratioP1;P1;durP2;ratioP2;P2;SDS_P1;SDS_P2;PMS_P1;PMS_P2;Temp;Humidity;BMP_temperature;BMP_pressure;BME280_temperature;BME280_humidity;BME280_pressure;Samples;Min_cycle;Max_cycle;Signal;HPM_P1;HPM_P2
2021/04/11 00:01:45;;;;;;;3.60;2.60;;;;;;;10.61;43.68;94790.78;4991247;28;20132;-62
2021/04/11 00:04:10;;;;;;;3.45;2.72;;;;;;;10.49;43.17;94756.03;4989655;28;20511;-63
2021/04/11 00:06:36;;;;;;;4.15;2.70;;;;;;;10.84;43.66;94810.78;5004466;28;20038;-63
2021/04/11 00:09:02;;;;;;;4.32;2.38;;;;;;;10.89;42.95;94812.53;4989012;28;20050;-63
2021/04/11 00:11:27;;;;;;;3.55;1.95;;;;;;;10.99;43.13;94835.38;4989195;28;20081;-61
2021/04/11 00:13:56;;;;;;;3.75;2.30;;;;;;;10.88;42.31;94817.06;4991389;28;20062;-62
2021/04/11 00:16:22;;;;;;;3.10;2.38;;;;;;;10.82;42.95;94796.25;4989823;28;20045;-62
2021/04/11 00:18:47;;;;;;;3.78;2.40;;;;;;;11.00;42.58;94826.28;4989176;28;20093;-62
2021/04/11 00:21:13;;;;;;;4.63;1.90;;;;;;;11.01;42.85;94825.22;4989076;28;20035;-61
2021/04/11 00:23:39;;;;;;;3.75;2.45;;;;;;;11.01;42.52;94809.25;5004240;28;20034;-62
2021/04/11 00:26:05;;;;;;;3.40;2.80;;;;;;;10.57;42.75;94757.91;5004093;28;20037;-63
2021/04/11 00:28:32;;;;;;;3.83;2.20;;;;;;;10.97;42.68;94818.97;5005984;28;20026;-62
2021/04/11 00:30:57;;;;;;;3.38;2.65;;;;;;;10.77;42.54;94793.75;4987929;28;20178;-62
2021/04/11 00:33:38;;;;;;;2.75;2.17;;;;;;;10.96;42.28;94823.50;4989018;28;20189;-62
2021/04/11 00:36:16;;;;;;;2.72;2.00;;;;;;;10.90;42.70;94809.56;5003899;28;20022;-62
2021/04/11 00:38:42;;;;;;;2.35;2.00;;;;;;;10.92;42.10;94811.91;4989006;28;20034;-61
2021/04/11 00:41:19;;;;;;;3.20;1.90;;;;;;;10.88;42.47;94817.06;4989037;28;20023;-62
2021/04/11 00:43:46;;;;;;;5.45;1.95;;;;;;;10.86;42.56;94797.19;5006138;28;20042;-63
2021/04/11 00:47:05;;;;;;;4.20;1.95;;;;;;;10.82;42.98;94796.25;4992779;28;20173;-62
2021/04/11 00:49:44;;;;;;;2.60;2.20;;;;;;;10.65;42.57;94768.56;4950224;28;20042;-63
2021/04/11 00:52:13;;;;;;;3.75;2.17;;;;;;;10.73;43.14;94792.81;4992851;28;20126;-63
2021/04/11 00:54:39;;;;;;;3.70;2.20;;;;;;;10.62;43.05;94771.84;4993167;28;20459;-62
2021/04/11 00:57:07;;;;;;;2.92;2.47;;;;;;;10.82;43.31;94790.94;4992612;28;20114;-63
2021/04/11 00:59:33;;;;;;;2.95;1.92;;;;;;;10.72;43.33;94781.38;4992917;28;20066;-62
2021/04/11 01:01:59;;;;;;;4.10;2.60;;;;;;;10.57;42.97;94749.94;4992627;28;20471;-64
2021/04/11 01:04:24;;;;;;;3.95;2.35;;;;;;;10.81;42.79;94792.81;4994806;28;20050;-62
2021/04/11 01:06:56;;;;;;;3.17;2.13;;;;;;;10.73;43.35;94782.94;4992644;28;20058;-62
2021/04/11 01:09:26;;;;;;;2.95;2.00;;;;;;;10.59;42.91;94755.72;4992683;28;20054;-63
2021/04/11 01:11:55;;;;;;;2.70;2.10;;;;;;;10.86;42.91;94791.88;4992545;28;20035;-63
2021/04/11 01:14:21;;;;;;;2.70;2.33;;;;;;;10.77;42.48;94775.91;4992679;28;20484;-64
2021/04/11 01:16:49;;;;;;;2.45;1.77;;;;;;;10.62;42.68;94749.78;4994393;28;20428;-62
2021/04/11 01:19:21;;;;;;;4.88;2.25;;;;;;;10.84;42.89;94778.09;5007589;28;20181;-63
2021/04/11 01:21:46;;;;;;;;;;;;;;;10.82;43.20;94786.41;5007645;28;20035;-61
2021/04/11 01:24:13;;;;;;;2.33;1.83;;;;;;;10.79;42.63;94771.03;4992491;28;20033;-62
2021/04/11 01:26:40;;;;;;;4.43;2.40;;;;;;;10.81;43.12;94768.88;4992450;28;20030;-63
2021/04/11 01:29:08;;;;;;;4.40;2.30;;;;;;;10.76;43.39;94777.00;4992429;28;20022;-62
2021/04/11 01:31:33;;;;;;;3.65;2.30;;;;;;;10.69;42.97;94771.38;4994183;28;20424;-62
2021/04/11 01:33:59;;;;;;;2.20;2.00;;;;;;;10.78;43.06;94777.47;4992344;28;20062;-63
2021/04/11 01:36:29;;;;;;;3.72;2.20;;;;;;;10.75;43.00;94771.97;5007212;28;20042;-63
2021/04/11 01:38:58;;;;;;;3.47;2.03;;;;;;;10.77;43.15;94770.59;4992093;28;20121;-62
2021/04/11 01:41:32;;;;;;;3.17;2.03;;;;;;;10.67;43.16;94749.63;4992011;28;20062;-62
2021/04/11 01:43:58;;;;;;;3.58;2.20;;;;;;;10.80;43.01;94766.50;4992010;28;20085;-63
2021/04/11 01:46:25;;;;;;;3.38;1.70;;;;;;;10.81;43.59;94765.44;4993769;28;20057;-62
2021/04/11 01:48:51;;;;;;;2.70;2.08;;;;;;;10.71;43.25;94747.13;5006607;28;20042;-63
2021/04/11 01:51:21;;;;;;;2.78;1.80;;;;;;;10.84;43.29;94767.44;4991494;28;20104;-62
2021/04/11 01:53:47;;;;;;;2.35;1.70;;;;;;;10.90;42.65;94759.00;4991907;28;20113;-63
2021/04/11 01:56:14;;;;;;;2.30;2.10;;;;;;;10.75;43.21;94726.75;4990822;28;20428;-61
2021/04/11 01:58:40;;;;;;;3.05;1.90;;;;;;;10.90;42.95;94745.72;4993479;28;20022;-67
2021/04/11 02:01:26;;;;;;;2.25;1.80;;;;;;;11.03;43.07;94759.94;4991776;28;20117;-61
2021/04/11 02:03:57;;;;;;;3.65;2.10;;;;;;;10.94;42.92;94743.97;4991769;28;20066;-62
2021/04/11 02:06:24;;;;;;;2.15;1.67;;;;;;;11.04;42.60;94758.03;4991640;28;20038;-63
2021/04/11 02:08:54;;;;;;;2.25;1.95;;;;;;;11.05;42.57;94749.72;4990027;28;20038;-63
2021/04/11 02:11:20;;;;;;;3.75;1.85;;;;;;;11.05;42.29;94756.94;4991375;28;20038;-61
2021/04/11 02:13:46;;;;;;;3.58;2.15;;;;;;;10.92;43.15;94738.19;4993426;28;20392;-63
2021/04/11 02:16:14;;;;;;;5.15;2.38;;;;;;;10.90;43.00;94732.41;4991391;28;20053;-62
2021/04/11 02:18:40;;;;;;;3.50;1.90;;;;;;;10.89;42.72;94730.81;4991141;28;20034;-63
2021/04/11 02:21:13;;;;;;;3.25;1.98;;;;;;;10.88;42.45;94726.59;4991271;28;20030;-63
2021/04/11 02:23:38;;;;;;;4.38;2.40;;;;;;;10.40;42.24;94637.16;4989398;28;20097;-62
2021/04/11 02:26:07;;;;;;;2.58;2.03;;;;;;;11.11;42.53;94750.38;4990143;28;20030;-63
2021/04/11 02:28:33;;;;;;;3.15;2.25;;;;;;;10.98;42.42;94722.06;4992880;28;20030;-62
2021/04/11 02:31:18;;;;;;;2.88;1.90;;;;;;;11.03;42.54;94743.94;5006251;28;20039;-62
2021/04/11 02:34:08;;;;;;;3.35;2.20;;;;;;;11.12;42.38;94746.59;4991175;28;20058;-63
2021/04/11 02:36:42;;;;;;;3.53;2.17;;;;;;;10.99;43.16;94727.06;4991031;28;20049;-63
2021/04/11 02:39:12;;;;;;;3.63;2.28;;;;;;;10.99;42.87;94724.38;4991187;28;20035;-63
2021/04/11 02:41:39;;;;;;;3.22;2.00;;;;;;;11.07;42.69;94730.81;4991065;28;20034;-62
2021/04/11 02:44:04;;;;;;;3.40;2.08;;;;;;;11.07;42.92;94731.59;4991143;28;20511;-63
2021/04/11 02:46:33;;;;;;;4.53;2.15;;;;;;;10.88;43.71;94704.53;4991498;28;20042;-62
2021/04/11 02:48:59;;;;;;;3.60;2.10;;;;;;;11.18;43.54;94751.44;5005654;28;20563;-62
2021/04/11 02:51:30;;;;;;;3.08;2.45;;;;;;;11.16;42.85;94748.31;4990203;28;20121;-62
2021/04/11 02:53:58;;;;;;;3.28;2.30;;;;;;;11.15;43.66;94751.28;4990797;28;20030;-62
2021/04/11 02:56:24;;;;;;;2.97;2.10;;;;;;;10.84;42.95;94704.38;5005609;28;20121;-63
2021/04/11 02:58:49;;;;;;;2.40;2.20;;;;;;;10.80;43.87;94700.00;4991114;28;20068;-63
2021/04/11 03:01:18;;;;;;;3.97;2.15;;;;;;;10.97;43.76;94720.50;4990491;28;20070;-62
2021/04/11 03:03:45;;;;;;;2.40;1.73;;;;;;;11.13;42.94;94742.84;4989219;28;20042;-62
2021/04/11 03:06:20;;;;;;;4.10;2.17;;;;;;;11.20;43.05;94753.78;4990522;28;20046;-63
2021/04/11 03:08:48;;;;;;;4.72;2.00;;;;;;;11.24;43.31;94751.28;4990080;28;20042;-63
2021/04/11 03:11:23;;;;;;;5.15;2.58;;;;;;;10.97;42.98;94701.88;5005538;28;20501;-61
2021/04/11 03:13:50;;;;;;;3.10;2.38;;;;;;;11.30;42.57;94750.00;4992413;28;20109;-62
2021/04/11 03:16:16;;;;;;;3.08;2.20;;;;;;;11.20;43.19;94735.16;4990163;28;20034;-63
2021/04/11 03:18:43;;;;;;;3.72;2.15;;;;;;;11.32;43.06;94745.16;5019456;23;20463;-69
2021/04/11 03:21:09;;;;;;;2.60;2.40;;;;;;;11.23;43.17;94731.84;5029512;28;20034;-69
2021/04/11 03:23:37;;;;;;;3.28;2.03;;;;;;;11.27;43.95;94738.13;5029617;28;20487;-71
2021/04/11 03:26:15;;;;;;;2.30;2.05;;;;;;;11.22;43.94;94735.63;5029487;28;20104;-69
2021/04/11 03:28:47;;;;;;;5.53;1.85;;;;;;;11.16;43.66;94732.34;5031377;28;20030;-70
2021/04/11 03:31:32;;;;;;;3.60;2.30;;;;;;;11.06;43.95;94727.38;5029382;28;20044;-71
2021/04/11 03:34:01;;;;;;;3.25;1.92;;;;;;;11.04;43.91;94729.53;5029443;28;20046;-70
2021/04/11 03:36:28;;;;;;;2.33;1.90;;;;;;;11.02;44.26;94737.06;5029305;28;20041;-70
2021/04/11 03:38:55;;;;;;;2.35;2.13;;;;;;;10.92;44.34;94726.75;5027428;28;20045;-70
2021/04/11 03:41:21;;;;;;;2.33;2.13;;;;;;;10.95;44.26;94731.44;5029143;28;20037;-70
2021/04/11 03:43:51;;;;;;;2.40;1.95;;;;;;;10.87;43.95;94726.91;5031291;28;20417;-70
2021/04/11 03:46:45;;;;;;;4.35;2.33;;;;;;;10.88;44.77;94744.44;5044522;28;20420;-71
2021/04/11 03:49:29;;;;;;;2.35;1.92;;;;;;;10.80;45.24;94735.38;5028082;28;20064;-70
2021/04/11 03:51:59;;;;;;;4.60;2.20;;;;;;;10.66;45.01;94722.25;5027783;28;20041;-70
2021/04/11 03:54:30;;;;;;;4.72;1.92;;;;;;;10.68;45.72;94737.88;5029237;28;20080;-70
2021/04/11 03:57:17;;;;;;;2.63;2.00;;;;;;;10.63;45.42;94735.38;5029005;28;20061;-70
2021/04/11 03:59:50;;;;;;;3.70;2.08;;;;;;;10.59;45.18;94732.56;5028958;28;20064;-70
2021/04/11 04:02:18;;;;;;;3.92;2.15;;;;;;;10.50;45.62;94734.47;5028955;28;20096;-70
2021/04/11 04:04:46;;;;;;;1.95;1.70;;;;;;;10.53;45.38;94743.66;5031016;28;20116;-70
2021/04/11 04:07:18;;;;;;;2.28;1.88;;;;;;;10.49;45.87;94737.41;5028511;28;20095;-70
2021/04/11 04:09:51;;;;;;;4.03;2.05;;;;;;;10.40;46.00;94732.09;5028997;28;20037;-70
2021/04/11 04:12:27;;;;;;;2.67;2.03;;;;;;;10.43;45.76;94738.66;5028755;28;20073;-71
2021/04/11 04:14:59;;;;;;;5.20;2.88;;;;;;;10.30;46.06;94722.56;5028835;28;20558;-70
2021/04/11 04:17:37;;;;;;;3.95;2.47;;;;;;;10.34;46.03;94728.81;5028409;28;20042;-70
2021/04/11 04:20:24;;;;;;;3.63;2.25;;;;;;;10.37;46.14;94744.13;5028140;28;20030;-70
2021/04/11 04:22:55;;;;;;;4.10;2.40;;;;;;;10.35;46.48;94745.56;5030521;28;20022;-69
2021/04/11 04:25:31;;;;;;;3.35;2.42;;;;;;;10.33;45.93;94751.16;5028789;28;20049;-71
2021/04/11 04:28:05;;;;;;;5.40;2.13;;;;;;;10.33;45.59;94747.72;5028324;28;20047;-70
2021/04/11 04:30:51;;;;;;;3.97;2.22;;;;;;;10.23;46.02;94738.13;5028651;28;20045;-70
2021/04/11 04:33:43;;;;;;;3.35;2.25;;;;;;;10.31;46.33;94752.56;5028533;28;20650;-70
2021/04/11 04:36:34;;;;;;;3.67;2.08;;;;;;;10.24;46.02;94755.72;5028662;28;20084;-70
2021/04/11 04:39:09;;;;;;;3.60;2.15;;;;;;;10.24;46.34;94754.94;5026976;28;20068;-70
2021/04/11 04:41:47;;;;;;;4.05;2.05;;;;;;;10.23;46.49;94754.09;5028360;28;20040;-70
2021/04/11 04:44:46;;;;;;;3.67;2.03;;;;;;;10.21;46.67;94758.16;5028495;28;20106;-70
2021/04/11 04:47:14;;;;;;;3.83;2.13;;;;;;;10.04;46.80;94735.78;5028177;28;20029;-70
2021/04/11 04:49:52;;;;;;;2.75;2.22;;;;;;;10.20;46.23;94760.03;5030386;28;20495;-70
2021/04/11 04:52:23;;;;;;;4.65;2.53;;;;;;;10.14;46.54;94750.66;5028246;28;20048;-70
2021/04/11 04:55:15;;;;;;;3.17;2.15;;;;;;;10.28;46.66;94763.81;5028736;28;20053;-70
2021/04/11 04:57:53;;;;;;;4.23;1.93;;;;;;;10.25;46.30;94754.59;5028261;28;20038;-70
2021/04/11 05:00:31;;;;;;;4.18;2.30;;;;;;;10.37;46.65;94760.09;5028511;28;20280;-71
2021/04/11 05:03:20;;;;;;;6.97;2.30;;;;;;;10.44;46.32;94759.63;5028237;28;20032;-71
2021/04/11 05:05:47;;;;;;;3.53;2.42;;;;;;;10.47;46.50;94748.38;5028319;28;20113;-70
2021/04/11 05:08:22;;;;;;;3.58;2.38;;;;;;;10.46;46.70;94738.06;5027766;28;20053;-72
2021/04/11 05:10:53;;;;;;;4.38;3.22;;;;;;;10.66;46.01;94751.50;5030909;28;20079;-70
2021/04/11 05:13:22;;;;;;;3.08;2.20;;;;;;;10.73;45.92;94752.91;5028577;28;20658;-70
2021/04/11 05:15:59;;;;;;;3.80;2.22;;;;;;;10.87;45.69;94756.97;5026868;28;20034;-71
2021/04/11 05:18:36;;;;;;;3.38;2.10;;;;;;;10.99;45.23;94752.88;5027944;28;20109;-70
2021/04/11 05:21:09;;;;;;;3.10;2.20;;;;;;;11.10;45.78;94754.88;5028211;28;20407;-69
2021/04/11 05:23:40;;;;;;;3.45;2.17;;;;;;;11.24;45.44;94761.91;5028077;28;20041;-69
2021/04/11 05:26:18;;;;;;;4.15;2.60;;;;;;;11.38;45.45;94755.31;5027990;28;20687;-69
2021/04/11 05:28:53;;;;;;;3.22;2.28;;;;;;;11.50;45.21;94754.63;5029869;28;20108;-71
2021/04/11 05:31:25;;;;;;;3.83;2.47;;;;;;;11.61;44.62;94763.06;5028719;28;20037;-70
2021/04/11 05:33:53;;;;;;;4.35;2.35;;;;;;;11.69;45.05;94754.25;5031863;28;20099;-71
2021/04/11 05:36:22;;;;;;;2.65;1.98;;;;;;;11.85;44.70;94757.97;5046861;28;20037;-71
2021/04/11 05:39:29;;;;;;;4.72;2.15;;;;;;;11.95;44.07;94751.50;5031410;28;20403;-70
2021/04/11 05:41:54;;;;;;;2.80;2.28;;;;;;;11.85;43.74;94759.88;5023674;28;20049;-71
2021/04/11 05:44:46;;;;;;;3.25;2.30;;;;;;;11.75;43.77;94755.66;5031484;28;20041;-71
2021/04/11 05:47:24;;;;;;;2.15;1.80;;;;;;;11.60;43.37;94745.53;5031148;28;20029;-70
2021/04/11 05:50:12;;;;;;;3.00;1.98;;;;;;;12.04;43.16;94756.81;5033437;28;20084;-71
2021/04/11 05:52:44;;;;;;;2.28;1.80;;;;;;;12.26;43.32;94759.19;5020892;28;20385;-70
2021/04/11 05:55:11;;;;;;;3.78;2.42;;;;;;;12.47;42.85;94754.63;5031596;28;20065;-71
2021/04/11 05:57:57;;;;;;;3.45;2.38;;;;;;;12.76;42.36;94763.69;5031297;28;20037;-71
2021/04/11 06:00:37;;;;;;;4.88;2.45;;;;;;;13.00;42.08;94755.81;5031325;28;20041;-70
2021/04/11 06:03:07;;;;;;;6.10;2.40;;;;;;;13.18;41.89;94742.28;5031325;28;20038;-71
2021/04/11 06:05:38;;;;;;;2.03;1.80;;;;;;;13.42;41.63;94741.59;5031340;28;20119;-70
2021/04/11 06:08:12;;;;;;;4.68;2.35;;;;;;;13.68;41.79;94754.66;5031036;28;20033;-70
2021/04/11 06:10:58;;;;;;;2.67;2.17;;;;;;;13.88;40.86;94753.00;5048660;28;20032;-72
2021/04/11 06:13:56;;;;;;;3.10;1.95;;;;;;;14.05;40.85;94752.78;5031313;28;20398;-70
2021/04/11 06:16:22;;;;;;;2.83;1.92;;;;;;;14.13;40.22;94748.44;5031480;28;20084;-71
2021/04/11 06:18:51;;;;;;;1.88;1.70;;;;;;;14.27;40.30;94752.31;5030724;28;20132;-71
2021/04/11 06:21:32;;;;;;;2.55;1.75;;;;;;;14.38;39.79;94755.31;5030701;28;20038;-70
2021/04/11 06:24:06;;;;;;;2.60;1.98;;;;;;;14.41;39.72;94746.63;5029860;28;20122;-70
2021/04/11 06:26:39;;;;;;;1.83;1.45;;;;;;;14.53;39.13;94751.97;5030662;28;20029;-70
2021/04/11 06:29:15;;;;;;;6.97;2.45;;;;;;;14.56;38.93;94747.84;5029358;28;20083;-70
2021/04/11 06:31:52;;;;;;;2.42;1.58;;;;;;;14.59;39.06;94743.69;5031654;28;20151;-71
2021/04/11 06:34:22;;;;;;;5.00;1.80;;;;;;;14.67;38.77;94745.47;5030752;28;20029;-71
2021/04/11 06:36:52;;;;;;;3.40;1.98;;;;;;;14.72;38.83;94732.63;5030276;28;20483;-70
2021/04/11 06:39:20;;;;;;;3.42;2.17;;;;;;;14.88;38.52;94742.63;5030569;28;20045;-71
2021/04/11 06:42:02;;;;;;;2.00;1.77;;;;;;;14.94;38.46;94736.66;5029962;28;20046;-70
2021/04/11 06:44:43;;;;;;;2.10;1.90;;;;;;;14.99;38.19;94732.97;5030529;28;20372;-71
2021/04/11 06:47:36;;;;;;;3.65;1.98;;;;;;;15.05;37.83;94728.94;5030000;28;20083;-70
2021/04/11 06:50:22;;;;;;;2.25;2.05;;;;;;;15.12;37.78;94723.78;5030152;28;20022;-70
2021/04/11 06:52:50;;;;;;;2.72;1.70;;;;;;;15.24;37.57;94726.38;5032156;28;20053;-73
2021/04/11 06:56:13;;;;;;;4.15;2.00;;;;;;;15.37;37.25;94713.69;5030211;28;20041;-70
2021/04/11 06:59:04;;;;;;;4.60;2.10;;;;;;;15.58;37.30;94716.13;4985953;28;20442;-70
2021/04/11 07:01:48;;;;;;;2.20;1.70;;;;;;;15.85;36.99;94719.88;5027286;28;20543;-72
2021/04/11 07:04:27;;;;;;;4.00;1.90;;;;;;;16.14;36.31;94715.97;5028993;28;20091;-69
2021/04/11 07:07:17;;;;;;;2.35;1.58;;;;;;;16.41;36.09;94710.78;5029907;28;20044;-70
2021/04/11 07:10:16;;;;;;;3.40;1.92;;;;;;;16.70;35.52;94712.16;5030135;28;20519;-70
2021/04/11 07:13:16;;;;;;;3.97;1.73;;;;;;;17.01;35.03;94711.28;5029836;28;20045;-70
2021/04/11 07:16:01;;;;;;;4.70;2.33;;;;;;;17.28;34.59;94712.16;5029921;28;20049;-70
2021/04/11 07:18:53;;;;;;;3.17;1.70;;;;;;;17.57;34.21;94703.44;5029555;28;20061;-71
2021/04/11 07:21:55;;;;;;;3.85;1.95;;;;;;;17.89;33.74;94708.59;5026396;28;20179;-72
2021/04/11 07:24:27;;;;;;;2.30;1.73;;;;;;;18.12;33.35;94714.75;5028604;28;20046;-71
2021/04/11 07:27:25;;;;;;;3.50;1.40;;;;;;;18.30;33.18;94704.22;5029240;28;20034;-71
2021/04/11 07:30:13;;;;;;;1.88;1.70;;;;;;;18.48;32.54;94698.28;5029562;28;20041;-72
2021/04/11 07:32:52;;;;;;;2.45;1.88;;;;;;;18.55;32.64;94693.00;5028862;28;20112;-63
2021/04/11 07:35:35;;;;;;;2.63;1.90;;;;;;;18.70;32.69;94700.16;5029278;28;20523;-66
2021/04/11 07:38:09;;;;;;;2.35;1.60;;;;;;;18.87;31.87;94693.44;5028134;28;20026;-63
2021/04/11 07:40:47;;;;;;;3.22;1.63;;;;;;;19.07;31.43;94697.50;5031311;28;20037;-64
2021/04/11 07:43:45;;;;;;;3.22;1.50;;;;;;;19.23;31.54;94689.97;5027710;28;20041;-66
2021/04/11 07:46:24;;;;;;;2.45;2.25;;;;;;;19.38;31.23;94682.03;5027841;28;20514;-69
2021/04/11 07:49:31;;;;;;;2.30;1.30;;;;;;;19.70;30.17;94690.44;5006038;28;20444;-73
2021/04/11 07:52:27;;;;;;;2.92;1.80;;;;;;;19.94;29.48;94686.38;4998370;28;20092;-75
2021/04/11 07:55:04;;;;;;;1.90;1.55;;;;;;;20.14;28.50;94685.00;5028276;28;20495;-71
2021/04/11 07:57:51;;;;;;;2.00;1.33;;;;;;;19.98;26.45;94684.50;5030169;28;20049;-72
2021/04/11 08:00:39;;;;;;;1.20;1.10;;;;;;;18.65;28.57;94690.44;5025086;28;20084;-71
2021/04/11 08:03:21;;;;;;;2.20;1.20;;;;;;;18.62;28.81;94698.47;5010341;28;20057;-73
2021/04/11 08:06:02;;;;;;;1.58;1.10;;;;;;;19.67;28.64;94680.41;5027608;28;20029;-68
2021/04/11 08:09:04;;;;;;;1.55;1.15;;;;;;;20.13;27.66;94680.75;5023743;28;20049;-70
2021/04/11 08:11:51;;;;;;;3.33;1.13;;;;;;;20.38;26.94;94685.53;4998320;28;20041;-73
2021/04/11 08:14:42;;;;;;;2.22;1.33;;;;;;;20.32;26.17;94687.03;5010134;28;20092;-81
2021/04/11 08:17:36;;;;;;;2.20;1.42;;;;;;;20.12;26.79;94684.59;5007476;28;20484;-69
2021/04/11 08:20:09;;;;;;;1.58;0.98;;;;;;;19.94;26.96;94662.09;5014213;28;20022;-76
2021/04/11 08:23:14;;;;;;;3.15;1.50;;;;;;;19.86;27.15;94679.38;4992398;28;20022;-68
2021/04/11 08:25:55;;;;;;;1.33;1.17;;;;;;;19.86;27.52;94665.88;4992398;28;20050;-74
2021/04/11 08:28:56;;;;;;;2.53;1.53;;;;;;;19.65;27.67;94674.59;4994287;28;20404;-73
2021/04/11 08:31:53;;;;;;;2.40;1.10;;;;;;;19.82;28.31;94679.38;5013909;28;20316;-72
2021/04/11 08:34:56;;;;;;;2.33;0.98;;;;;;;19.82;28.16;94678.59;5009904;28;20034;-82
2021/04/11 08:37:45;;;;;;;1.30;1.17;;;;;;;19.77;27.53;94682.41;5005808;28;20034;-81
2021/04/11 08:40:32;;;;;;;1.23;1.10;;;;;;;19.87;27.64;94686.34;4997820;28;20041;-80
2021/04/11 08:43:16;;;;;;;1.60;0.90;;;;;;;19.96;28.06;94694.88;5010044;28;20433;-74
2021/04/11 08:45:47;;;;;;;2.20;0.90;;;;;;;19.93;28.10;94692.94;5000485;28;20069;-75
2021/04/11 08:48:32;;;;;;;2.65;0.80;;;;;;;19.82;27.32;94687.47;5010079;28;20515;-73
2021/04/11 08:51:10;;;;;;;1.75;0.90;;;;;;;19.76;27.42;94694.34;4991429;28;20065;-70
2021/04/11 08:53:52;;;;;;;1.98;1.00;;;;;;;19.88;27.90;94702.16;4990319;28;20049;-72
2021/04/11 08:56:41;;;;;;;1.65;0.63;;;;;;;19.62;27.98;94696.94;4990720;28;20396;-80
2021/04/11 08:59:28;;;;;;;2.08;0.90;;;;;;;18.87;29.14;94704.97;4990993;28;20476;-76
2021/04/11 09:01:53;;;;;;;1.65;0.90;;;;;;;19.36;29.14;94703.22;4991553;28;20035;-73
2021/04/11 09:04:30;;;;;;;1.58;0.70;;;;;;;19.57;29.04;94697.25;4990977;28;20038;-79
2021/04/11 09:07:13;;;;;;;3.10;0.90;;;;;;;19.64;28.78;94700.78;4993583;28;20562;-81
2021/04/11 09:09:53;;;;;;;4.18;0.85;;;;;;;19.58;29.00;94694.16;4994671;28;20125;-78
2021/04/11 09:12:31;;;;;;;1.27;0.93;;;;;;;19.64;29.25;94703.50;4994127;28;20030;-77
2021/04/11 09:15:06;;;;;;;0.70;0.50;;;;;;;19.66;29.34;94703.13;4999555;28;20480;-80
2021/04/11 09:17:54;;;;;;;2.33;1.10;;;;;;;19.74;28.84;94693.94;5009863;28;20030;-76
2021/04/11 09:20:54;;;;;;;1.27;0.65;;;;;;;19.65;29.28;94682.69;5011266;28;20046;-75
2021/04/11 09:23:34;;;;;;;1.38;0.52;;;;;;;19.58;29.06;94694.16;5013414;28;20337;-72
2021/04/11 09:26:20;;;;;;;1.20;0.80;;;;;;;19.69;29.09;94684.25;5013096;28;20045;-73
2021/04/11 09:28:53;;;;;;;1.08;0.70;;;;;;;19.63;28.99;94674.97;5014777;28;20037;-70
2021/04/11 09:31:18;;;;;;;1.35;0.70;;;;;;;19.25;29.13;94683.47;5012945;28;20124;-70
2021/04/11 09:34:21;;;;;;;1.00;0.70;;;;;;;19.01;29.84;94684.75;5013169;28;20380;-70
2021/04/11 09:37:19;;;;;;;1.27;0.90;;;;;;;19.26;29.65;94677.69;5003074;28;20026;-71
2021/04/11 09:40:00;;;;;;;1.67;0.75;;;;;;;19.36;29.68;94687.81;4993290;28;20092;-69
2021/04/11 09:42:44;;;;;;;0.90;0.60;;;;;;;19.45;29.39;94680.19;4993246;28;20050;-70
2021/04/11 09:45:18;;;;;;;1.48;0.60;;;;;;;19.42;29.27;94686.31;4993606;28;20030;-75
2021/04/11 09:48:02;;;;;;;0.93;0.70;;;;;;;19.08;29.79;94682.88;4993852;28;20041;-75
2021/04/11 09:50:50;;;;;;;1.88;0.82;;;;;;;18.64;30.75;94683.50;4991686;28;20042;-79
2021/04/11 09:53:52;;;;;;;1.88;1.05;;;;;;;19.04;30.55;94678.59;5011819;28;20073;-79
2021/04/11 09:56:55;;;;;;;1.15;0.60;;;;;;;18.71;30.28;94685.53;5001534;28;20117;-76
2021/04/11 09:59:39;;;;;;;0.75;0.60;;;;;;;19.18;29.66;94676.06;5011921;28;20049;-76
2021/04/11 10:02:26;;;;;;;1.17;0.80;;;;;;;19.29;29.34;94673.47;5011143;28;20072;-80
2021/04/11 10:05:18;;;;;;;0.88;0.70;;;;;;;19.36;29.41;94663.53;5015089;28;20025;-78
2021/04/11 10:08:00;;;;;;;1.85;0.73;;;;;;;19.06;29.73;94670.94;4992028;28;20085;-73
2021/04/11 10:10:31;;;;;;;1.00;0.50;;;;;;;19.31;29.46;94660.41;4992181;28;20116;-77
2021/04/11 10:13:25;;;;;;;1.20;1.05;;;;;;;19.50;29.44;94665.59;4992415;28;20058;-67
2021/04/11 10:16:20;;;;;;;2.47;0.70;;;;;;;19.66;29.10;94663.44;5010214;28;20049;-72
2021/04/11 10:19:03;;;;;;;1.63;0.73;;;;;;;19.61;29.24;94658.38;5029092;28;20045;-71
2021/04/11 10:21:50;;;;;;;0.98;0.75;;;;;;;19.64;29.20;94654.16;5002257;28;20833;-73
2021/04/11 10:24:41;;;;;;;0.60;0.60;;;;;;;19.81;28.96;94652.72;5012920;28;20361;-75
2021/04/11 10:27:27;;;;;;;0.98;0.70;;;;;;;19.52;28.41;94628.22;5000171;28;20045;-74
2021/04/11 10:29:54;;;;;;;0.82;0.70;;;;;;;18.40;30.38;94651.66;4998279;28;20523;-86
2021/04/11 10:32:52;;;;;;;1.27;0.50;;;;;;;18.62;30.50;94650.00;5012413;28;20092;-73
2021/04/11 10:35:29;;;;;;;0.95;0.60;;;;;;;19.19;29.63;94645.25;5017083;28;20146;-75
2021/04/11 10:38:03;;;;;;;2.13;0.75;;;;;;;18.76;30.44;94638.63;5034445;28;20039;-79
2021/04/11 10:40:38;;;;;;;0.80;0.70;;;;;;;19.02;29.84;94638.53;5032940;28;20040;-79
2021/04/11 10:43:39;;;;;;;1.42;0.50;;;;;;;19.19;29.38;94640.66;5031908;28;20061;-73
2021/04/11 10:46:20;;;;;;;1.02;0.68;;;;;;;19.57;29.72;94627.88;4997734;28;20050;-67
2021/04/11 10:48:48;;;;;;;0.75;0.57;;;;;;;20.31;28.27;94632.22;4991891;28;20130;-82
2021/04/11 10:51:37;;;;;;;1.98;0.85;;;;;;;20.65;29.16;94622.00;4988338;28;20061;-70
2021/04/11 10:54:28;;;;;;;2.00;1.20;;;;;;;20.88;28.09;94618.19;4979742;28;20546;-74
2021/04/11 10:57:28;;;;;;;3.10;0.80;;;;;;;20.78;29.02;94627.84;5003241;28;20034;-69
2021/04/11 11:00:03;;;;;;;1.35;0.65;;;;;;;21.77;28.93;94616.41;5009218;28;20037;-68
2021/04/11 11:02:31;;;;;;;2.40;0.50;;;;;;;22.40;25.86;94624.81;4991427;28;20081;-71
2021/04/11 11:05:18;;;;;;;0.57;0.57;;;;;;;22.55;26.59;94620.88;4993335;28;20101;-70
2021/04/11 11:08:03;;;;;;;0.73;0.60;;;;;;;21.47;27.68;94607.91;5009513;28;20065;-70
2021/04/11 11:10:37;;;;;;;0.45;0.40;;;;;;;22.29;26.13;94600.47;4992831;28;20225;-76
2021/04/11 11:13:28;;;;;;;1.00;0.55;;;;;;;23.22;25.12;94612.84;4991912;28;20073;-79
2021/04/11 11:16:09;;;;;;;1.45;0.65;;;;;;;23.84;24.44;94607.34;4992082;28;20040;-77
2021/04/11 11:19:03;;;;;;;0.73;0.50;;;;;;;24.26;23.54;94608.13;4990276;28;20050;-78
2021/04/11 11:21:51;;;;;;;2.17;0.70;;;;;;;24.58;23.00;94612.44;4989975;28;20082;-80
2021/04/11 11:24:28;;;;;;;2.92;0.68;;;;;;;24.80;22.76;94608.28;4987811;28;20037;-80
2021/04/11 11:27:09;;;;;;;3.92;0.60;;;;;;;25.15;22.25;94607.06;4991444;28;20049;-79
2021/04/11 11:29:40;;;;;;;1.13;0.57;;;;;;;25.25;21.98;94599.94;4990487;28;20054;-78
2021/04/11 11:32:21;;;;;;;0.93;0.57;;;;;;;25.36;22.12;94611.44;4990917;28;20476;-80
2021/04/11 11:34:56;;;;;;;2.20;0.60;;;;;;;25.49;21.75;94602.69;4993643;28;20042;-82
2021/04/11 11:37:52;;;;;;;0.88;0.57;;;;;;;25.45;21.21;94594.59;4991243;28;20034;-83
2021/04/11 11:40:30;;;;;;;3.17;0.60;;;;;;;25.73;21.44;94603.47;4991276;28;20046;-72
2021/04/11 11:43:01;;;;;;;1.25;0.70;;;;;;;25.98;21.38;94614.75;4989086;28;20043;-71
2021/04/11 11:45:39;;;;;;;0.82;0.60;;;;;;;26.34;21.41;94611.38;4991084;28;20533;-83
2021/04/11 11:48:34;;;;;;;0.95;0.55;;;;;;;26.28;20.42;94597.47;4990891;28;20046;-77
2021/04/11 11:51:09;;;;;;;0.75;0.35;;;;;;;26.31;20.21;94604.81;4990301;28;20080;-77
2021/04/11 11:53:43;;;;;;;1.60;0.38;;;;;;;26.22;20.60;94609.28;4990642;28;20133;-74
2021/04/11 11:56:41;;;;;;;0.68;0.40;;;;;;;25.95;20.63;94618.31;4989778;28;20073;-71
2021/04/11 11:59:32;;;;;;;1.45;0.52;;;;;;;25.68;20.65;94623.78;4990167;28;20506;-69
2021/04/11 12:02:22;;;;;;;0.50;0.50;;;;;;;25.55;20.78;94622.84;5009638;28;20105;-68
2021/04/11 12:05:09;;;;;;;0.93;0.52;;;;;;;23.06;22.90;94624.19;5011781;28;20038;-68
2021/04/11 12:08:21;;;;;;;0.32;0.32;;;;;;;22.92;23.47;94618.81;5010121;28;20443;-69
2021/04/11 12:11:06;;;;;;;0.82;0.45;;;;;;;23.60;23.29;94617.22;4991976;28;20065;-69
2021/04/11 12:13:43;;;;;;;1.05;0.43;;;;;;;24.03;23.03;94622.31;5010173;28;20040;-71
2021/04/11 12:16:27;;;;;;;1.55;0.50;;;;;;;23.73;22.80;94609.38;5009906;28;20057;-71
2021/04/11 12:19:05;;;;;;;0.82;0.60;;;;;;;23.58;22.57;94616.84;5009436;28;20046;-70
2021/04/11 12:21:39;;;;;;;2.22;0.95;;;;;;;22.14;24.43;94628.75;5007924;28;20510;-70
2021/04/11 12:24:17;;;;;;;0.60;0.47;;;;;;;22.17;24.74;94632.63;5009553;28;20045;-71
2021/04/11 12:26:50;;;;;;;0.43;0.43;;;;;;;22.31;24.74;94616.31;5009530;28;20044;-70